Time;durP1;ratioP1;P1;durP2;ratioP2;P2;SDS_P1;SDS_P2;PMS_P1;PMS_P2;Temp;Humidity;BMP_temperature;BMP_pressure;BME280_temperature;BME280_humidity;BME280_pressure;Samples;Min_cycle;Max_cycle;Signal;HPM_P1;HPM_P2
2021/06/13 00:01:41;;;;;;;5.80;5.03;;;22.20;71.20;;;;;;5085106;28;27736;-66
2021/06/13 00:04:31;;;;;;;6.80;4.95;;;22.10;71.50;;;;;;5098292;27;27480;-66
2021/06/13 00:07:21;;;;;;;8.27;5.13;;;22.10;71.10;;;;;;5085226;28;27402;-67
2021/06/13 00:10:13;;;;;;;6.28;5.43;;;22.00;71.30;;;;;;5085214;28;27494;-66
2021/06/13 00:13:02;;;;;;;6.07;5.40;;;22.00;71.10;;;;;;5081222;28;27398;-67
2021/06/13 00:15:51;;;;;;;9.25;4.78;;;22.00;70.90;;;;;;5099103;27;27459;-66
2021/06/13 00:18:40;;;;;;;10.07;6.25;;;21.90;71.10;;;;;;5066924;28;27320;-66
2021/06/13 00:21:29;;;;;;;6.22;4.93;;;21.80;71.30;;;;;;5084272;28;27431;-65
2021/06/13 00:24:21;;;;;;;6.07;5.28;;;21.80;71.10;;;;;;5085328;28;27353;-66
2021/06/13 00:27:09;;;;;;;6.15;4.25;;;21.80;71.00;;;;;;5085251;28;27402;-67
2021/06/13 00:29:57;;;;;;;5.45;4.28;;;21.80;71.70;;;;;;5085140;28;27447;-66
2021/06/13 00:32:46;;;;;;;5.38;4.68;;;21.70;71.40;;;;;;5084069;28;27508;-66
2021/06/13 00:35:36;;;;;;;5.68;5.10;;;21.70;71.50;;;;;;5082642;28;27652;-65
2021/06/13 00:38:27;;;;;;;5.28;4.78;;;21.70;71.80;;;;;;5084080;28;27375;-64
2021/06/13 00:41:20;;;;;;;6.38;5.03;;;21.60;71.70;;;;;;5098225;27;27415;-64
2021/06/13 00:44:16;;;;;;;6.28;5.15;;;21.60;71.90;;;;;;5066761;28;27397;-68
2021/06/13 00:47:07;;;;;;;5.70;5.15;;;21.60;71.70;;;;;;5070331;28;27337;-65
2021/06/13 00:49:56;;;;;;;6.20;5.20;;;21.60;71.90;;;;;;5084139;28;27498;-66
2021/06/13 00:52:44;;;;;;;7.13;5.25;;;21.50;71.60;;;;;;5083757;28;27457;-66
2021/06/13 00:55:33;;;;;;;6.05;5.25;;;21.50;72.10;;;;;;5066427;28;27407;-64
2021/06/13 00:58:23;;;;;;;6.57;5.00;;;21.50;71.60;;;;;;5083787;28;27489;-64
2021/06/13 01:01:11;;;;;;;6.82;5.07;;;21.40;71.60;;;;;;5069667;28;27341;-67
2021/06/13 01:04:01;;;;;;;6.95;5.22;;;21.40;71.60;;;;;;5083967;28;27391;-65
2021/06/13 01:06:56;;;;;;;5.72;4.97;;;21.40;71.60;;;;;;5066431;28;27489;-66
2021/06/13 01:09:54;;;;;;;5.75;4.93;;;21.30;71.70;;;;;;5084403;28;27443;-66
2021/06/13 01:12:47;;;;;;;6.22;5.60;;;21.30;71.60;;;;;;5067471;28;27314;-66
2021/06/13 01:15:42;;;;;;;5.13;4.63;;;21.20;71.20;;;;;;5083445;28;27840;-66
2021/06/13 01:19:06;;;;;;;5.35;4.85;;;21.20;71.20;;;;;;5070147;28;27425;-66
2021/06/13 01:22:18;;;;;;;5.90;5.30;;;21.20;71.80;;;;;;5083472;28;27659;-66
2021/06/13 01:25:42;;;;;;;6.20;5.60;;;21.10;71.50;;;;;;5080143;28;27403;-66
2021/06/13 01:29:04;;;;;;;5.45;4.80;;;21.10;71.20;;;;;;5083909;28;27415;-66
2021/06/13 01:31:58;;;;;;;4.85;4.38;;;21.00;71.70;;;;;;5069947;28;27378;-65
2021/06/13 01:34:51;;;;;;;5.28;4.78;;;21.00;71.80;;;;;;5083327;28;27462;-66
2021/06/13 01:37:48;;;;;;;6.18;5.07;;;20.90;72.10;;;;;;5069573;28;27437;-64
2021/06/13 01:40:37;;;;;;;6.88;5.03;;;20.90;72.00;;;;;;5083689;28;27809;-65
2021/06/13 01:43:28;;;;;;;5.32;4.65;;;20.90;72.10;;;;;;5083143;28;27438;-65
2021/06/13 01:46:19;;;;;;;5.38;4.88;;;20.80;71.80;;;;;;5083194;28;27398;-66
2021/06/13 01:49:11;;;;;;;5.50;4.97;;;20.80;72.00;;;;;;5083416;28;27482;-64
2021/06/13 01:52:03;;;;;;;5.63;5.00;;;20.80;72.20;;;;;;5084428;28;27455;-64
2021/06/13 01:54:56;;;;;;;8.55;4.95;;;20.70;72.10;;;;;;5100207;27;27429;-65
2021/06/13 01:57:46;;;;;;;8.15;4.63;;;20.70;71.70;;;;;;5069309;28;27571;-65
2021/06/13 02:01:08;;;;;;;5.97;4.60;;;20.60;71.70;;;;;;5093050;27;27512;-64
2021/06/13 02:03:58;;;;;;;6.72;4.47;;;20.60;72.10;;;;;;5101078;27;27352;-65
2021/06/13 02:07:19;;;;;;;5.25;4.75;;;20.60;71.70;;;;;;5086165;28;27645;-65
2021/06/13 02:10:10;;;;;;;6.20;4.82;;;20.50;71.90;;;;;;5086496;28;27398;-65
2021/06/13 02:13:04;;;;;;;5.28;4.75;;;20.40;72.00;;;;;;5072938;28;27454;-65
2021/06/13 02:15:55;;;;;;;9.35;4.90;;;20.40;72.00;;;;;;5072557;28;27478;-65
2021/06/13 02:18:45;;;;;;;6.82;4.80;;;20.40;72.10;;;;;;5086596;28;27376;-66
2021/06/13 02:21:35;;;;;;;5.72;4.40;;;20.30;72.40;;;;;;5086131;28;27421;-66
2021/06/13 02:24:24;;;;;;;5.55;4.53;;;20.30;72.10;;;;;;5082956;28;27371;-67
2021/06/13 02:27:22;;;;;;;5.70;4.13;;;20.20;72.00;;;;;;5086852;28;27489;-65
2021/06/13 02:30:16;;;;;;;8.27;4.82;;;20.20;72.20;;;;;;5069103;28;27521;-65
2021/06/13 02:33:05;;;;;;;7.20;4.45;;;20.20;72.30;;;;;;5058362;28;27349;-65
2021/06/13 02:35:55;;;;;;;5.25;4.60;;;20.10;71.90;;;;;;5069034;28;27358;-65
2021/06/13 02:38:43;;;;;;;5.63;4.28;;;20.10;72.30;;;;;;5072219;28;27861;-64
2021/06/13 02:41:34;;;;;;;5.20;4.43;;;20.10;72.00;;;;;;5086912;28;27390;-65
2021/06/13 02:44:24;;;;;;;7.97;4.72;;;20.00;71.90;;;;;;5072166;28;27430;-66
2021/06/13 02:47:15;;;;;;;8.43;5.18;;;20.00;72.00;;;;;;5068740;28;27393;-64
2021/06/13 02:50:06;;;;;;;5.60;4.88;;;20.00;72.20;;;;;;5085988;28;27944;-65
2021/06/13 02:53:32;;;;;;;5.85;5.25;;;19.90;72.10;;;;;;5086437;28;27496;-65
2021/06/13 02:56:28;;;;;;;7.43;5.10;;;19.90;72.40;;;;;;5086733;28;27413;-67
2021/06/13 02:59:47;;;;;;;5.40;4.47;;;19.90;73.70;;;;;;5085801;28;27466;-64
2021/06/13 03:02:45;;;;;;;6.95;4.78;;;19.90;73.30;;;;;;5084991;28;27442;-64
2021/06/13 03:05:35;;;;;;;6.20;4.57;;;19.90;73.70;;;;;;5068263;28;27414;-64
2021/06/13 03:08:24;;;;;;;6.72;4.82;;;19.90;73.60;;;;;;5068661;28;27490;-64
2021/06/13 03:11:14;;;;;;;7.90;4.75;;;19.80;73.60;;;;;;5100019;27;27409;-64
2021/06/13 03:14:06;;;;;;;6.05;4.85;;;19.80;73.60;;;;;;5082094;28;27446;-64
2021/06/13 03:17:03;;;;;;;4.93;4.43;;;19.80;73.80;;;;;;5084815;28;27349;-64
2021/06/13 03:19:54;;;;;;;6.63;4.78;;;19.80;73.80;;;;;;5069301;28;27519;-65
2021/06/13 03:22:42;;;;;;;9.48;5.00;;;19.80;73.70;;;;;;5085564;28;27308;-65
2021/06/13 03:25:34;;;;;;;6.70;4.72;;;19.80;73.60;;;;;;5085190;28;27872;-67
2021/06/13 03:28:22;;;;;;;7.72;5.13;;;19.80;72.90;;;;;;5081921;28;27567;-69
2021/06/13 03:31:13;;;;;;;7.30;4.90;;;19.80;73.30;;;;;;5085141;28;27431;-69
2021/06/13 03:34:02;;;;;;;10.00;4.78;;;19.70;73.50;;;;;;5085087;28;27405;-67
2021/06/13 03:36:53;;;;;;;5.85;5.00;;;19.70;73.30;;;;;;5083714;28;27582;-67
2021/06/13 03:39:44;;;;;;;8.13;4.40;;;19.70;73.20;;;;;;5099057;27;27386;-66
2021/06/13 03:42:34;;;;;;;4.75;4.35;;;19.60;73.20;;;;;;5099488;27;27520;-67
2021/06/13 03:45:24;;;;;;;8.27;5.72;;;19.60;73.20;;;;;;5084627;28;27359;-67
2021/06/13 03:48:14;;;;;;;13.18;5.22;;;19.60;73.10;;;;;;5085869;28;27844;-67
2021/06/13 03:51:05;;;;;;;7.82;5.40;;;19.60;73.50;;;;;;5085138;28;27347;-67
2021/06/13 03:53:57;;;;;;;8.07;4.80;;;19.50;73.90;;;;;;5099198;27;27469;-66
2021/06/13 03:56:55;;;;;;;9.40;5.10;;;19.50;74.20;;;;;;5085107;28;27378;-66
2021/06/13 03:59:44;;;;;;;7.25;4.53;;;19.50;74.00;;;;;;5084535;28;27849;-67
2021/06/13 04:02:32;;;;;;;11.15;5.20;;;19.50;74.50;;;;;;5081673;28;27332;-66
2021/06/13 04:05:21;;;;;;;6.57;4.38;;;19.40;74.60;;;;;;5084951;28;27436;-66
2021/06/13 04:08:12;;;;;;;6.93;5.10;;;19.50;75.00;;;;;;5085255;28;27420;-67
2021/06/13 04:11:02;;;;;;;6.47;4.95;;;19.50;74.70;;;;;;5084469;28;27820;-67
2021/06/13 04:13:50;;;;;;;6.93;4.70;;;19.50;75.10;;;;;;5083114;28;27582;-67
2021/06/13 04:16:53;;;;;;;7.55;4.90;;;19.50;75.30;;;;;;5098894;27;27412;-66
2021/06/13 04:19:46;;;;;;;6.55;4.97;;;19.50;75.20;;;;;;5086492;28;27375;-66
2021/06/13 04:22:38;;;;;;;7.15;5.55;;;19.50;75.50;;;;;;5067280;28;27936;-67
2021/06/13 04:25:36;;;;;;;10.15;4.15;;;19.50;75.70;;;;;;5085011;28;27609;-67
2021/06/13 04:28:24;;;;;;;6.93;5.13;;;19.50;75.60;;;;;;5084552;28;27462;-66
2021/06/13 04:31:15;;;;;;;15.13;5.53;;;19.50;75.50;;;;;;5070683;28;27376;-67
2021/06/13 04:34:05;;;;;;;5.55;4.20;;;19.60;75.40;;;;;;5084123;28;27449;-67
2021/06/13 04:36:56;;;;;;;5.07;4.55;;;19.60;75.30;;;;;;5083205;28;27478;-67
2021/06/13 04:39:53;;;;;;;5.68;4.63;;;19.60;75.00;;;;;;5084003;28;27557;-67
2021/06/13 04:42:42;;;;;;;9.57;4.38;;;19.60;75.20;;;;;;5080786;28;26934;-67
2021/06/13 04:45:31;;;;;;;6.10;4.05;;;19.60;75.20;;;;;;5084928;28;27876;-67
2021/06/13 04:48:20;;;;;;;5.93;4.00;;;19.60;75.60;;;;;;5084233;28;27463;-66
2021/06/13 04:51:11;;;;;;;6.97;3.88;;;19.60;75.40;;;;;;5070210;28;27309;-67
2021/06/13 04:53:59;;;;;;;8.10;4.68;;;19.60;75.00;;;;;;5084448;28;27423;-67
2021/06/13 04:57:11;;;;;;;5.72;4.32;;;19.60;75.60;;;;;;5066391;28;27927;-66
2021/06/13 05:00:05;;;;;;;8.35;4.72;;;19.70;75.00;;;;;;5083637;28;27423;-67
2021/06/13 05:02:55;;;;;;;6.90;4.70;;;19.60;75.80;;;;;;5084030;28;27490;-66
2021/06/13 05:05:43;;;;;;;8.48;4.40;;;19.70;75.40;;;;;;5069972;28;27391;-66
2021/06/13 05:08:32;;;;;;;8.73;3.85;;;19.70;75.70;;;;;;5084375;28;27428;-67
2021/06/13 05:11:20;;;;;;;7.95;4.65;;;19.70;75.60;;;;;;5084297;28;27478;-67
2021/06/13 05:14:09;;;;;;;5.97;4.18;;;19.70;75.90;;;;;;5069632;28;27337;-67
2021/06/13 05:16:59;;;;;;;7.68;4.25;;;19.70;75.90;;;;;;5083557;28;27494;-66
2021/06/13 05:19:49;;;;;;;9.57;4.20;;;19.70;76.00;;;;;;5083278;28;27502;-66
2021/06/13 05:22:59;;;;;;;6.75;4.13;;;19.70;75.90;;;;;;5084109;28;27497;-67
2021/06/13 05:25:48;;;;;;;6.28;3.95;;;19.70;75.30;;;;;;5066057;28;27396;-67
2021/06/13 05:28:36;;;;;;;8.02;4.07;;;19.70;75.80;;;;;;5069677;28;27411;-66
2021/06/13 05:31:26;;;;;;;6.20;3.75;;;19.70;76.10;;;;;;5084068;28;27421;-66
2021/06/13 05:34:17;;;;;;;6.80;4.20;;;19.80;76.60;;;;;;5066156;28;27356;-66
2021/06/13 05:37:11;;;;;;;8.00;4.30;;;19.80;75.70;;;;;;5069137;28;27649;-71
2021/06/13 05:40:00;;;;;;;7.07;3.42;;;19.80;75.60;;;;;;5083827;28;27442;-71
2021/06/13 05:42:51;;;;;;;11.57;4.28;;;19.80;75.80;;;;;;5084218;28;27966;-68
2021/06/13 05:45:41;;;;;;;7.25;4.15;;;19.80;75.30;;;;;;5083188;28;27504;-67
2021/06/13 05:48:30;;;;;;;7.88;4.13;;;20.00;75.80;;;;;;5083923;28;27399;-67
2021/06/13 05:51:18;;;;;;;6.57;3.90;;;20.00;76.60;;;;;;5083245;28;27460;-68
2021/06/13 05:54:08;;;;;;;7.93;4.18;;;20.20;75.20;;;;;;5069046;28;27393;-67
2021/06/13 05:56:57;;;;;;;7.00;3.65;;;20.40;74.30;;;;;;5083361;28;27396;-69
2021/06/13 05:59:47;;;;;;;11.13;4.50;;;20.50;75.20;;;;;;5066012;28;27418;-67
2021/06/13 06:02:37;;;;;;;8.30;4.10;;;20.70;74.00;;;;;;5082951;28;27347;-67
2021/06/13 06:05:26;;;;;;;7.45;4.35;;;20.80;75.60;;;;;;5096467;27;27516;-68
2021/06/13 06:08:17;;;;;;;7.97;4.90;;;21.00;74.90;;;;;;5083171;28;27321;-67
2021/06/13 06:11:09;;;;;;;9.50;4.25;;;21.10;74.30;;;;;;5069005;28;27432;-68
2021/06/13 06:13:59;;;;;;;8.82;4.45;;;21.30;74.10;;;;;;5082832;28;27558;-68
2021/06/13 06:16:49;;;;;;;5.90;3.92;;;21.50;72.30;;;;;;5082730;28;27378;-69
2021/06/13 06:19:39;;;;;;;6.38;4.13;;;21.60;72.90;;;;;;5082839;28;27459;-68
2021/06/13 06:22:29;;;;;;;9.32;4.25;;;21.80;72.00;;;;;;5083452;28;27372;-68
2021/06/13 06:25:18;;;;;;;7.80;3.95;;;21.90;70.20;;;;;;5079387;28;27419;-67
2021/06/13 06:28:07;;;;;;;7.00;4.60;;;22.00;70.60;;;;;;5082670;28;27404;-70
2021/06/13 06:31:05;;;;;;;6.75;4.20;;;22.20;70.10;;;;;;5082528;28;27336;-69
2021/06/13 06:33:55;;;;;;;6.47;4.18;;;22.30;69.70;;;;;;5070090;28;27455;-69
2021/06/13 06:36:45;;;;;;;8.18;4.47;;;22.40;70.00;;;;;;5096967;27;27423;-68
2021/06/13 06:39:33;;;;;;;9.18;4.68;;;22.50;69.80;;;;;;5083881;28;27459;-68
2021/06/13 06:42:23;;;;;;;5.13;3.80;;;22.60;70.10;;;;;;5086178;28;27513;-68
2021/06/13 06:45:13;;;;;;;6.32;3.67;;;22.70;70.70;;;;;;5085898;28;27435;-67
2021/06/13 06:48:03;;;;;;;7.40;3.47;;;22.90;70.00;;;;;;5072290;28;27390;-68
2021/06/13 06:50:55;;;;;;;7.38;3.45;;;23.00;69.90;;;;;;5085975;28;27369;-69
2021/06/13 06:53:43;;;;;;;8.82;4.05;;;23.10;70.70;;;;;;5082448;28;27383;-67
2021/06/13 06:56:38;;;;;;;6.75;3.80;;;23.30;69.60;;;;;;5071928;28;27373;-74
2021/06/13 06:59:26;;;;;;;7.93;3.38;;;23.40;69.20;;;;;;5085445;28;27455;-67
2021/06/13 07:02:14;;;;;;;9.38;3.63;;;23.50;70.50;;;;;;5085561;28;27425;-68
2021/06/13 07:05:04;;;;;;;5.85;3.90;;;23.60;69.10;;;;;;5085518;28;27441;-67
2021/06/13 07:07:53;;;;;;;6.88;3.97;;;23.70;68.80;;;;;;5071659;28;27512;-69
2021/06/13 07:10:45;;;;;;;9.38;3.70;;;23.80;69.60;;;;;;5085530;28;27405;-68
2021/06/13 07:13:43;;;;;;;8.73;3.63;;;24.00;70.30;;;;;;5086137;28;27981;-68
2021/06/13 07:16:36;;;;;;;7.95;4.15;;;24.10;71.00;;;;;;5085664;28;27432;-68
2021/06/13 07:19:33;;;;;;;6.57;3.70;;;24.30;69.60;;;;;;5069249;28;27390;-67
2021/06/13 07:22:23;;;;;;;6.65;3.92;;;24.40;68.70;;;;;;5099627;27;27510;-69
2021/06/13 07:25:13;;;;;;;5.82;4.13;;;24.50;68.40;;;;;;5085171;28;27528;-69
2021/06/13 07:28:06;;;;;;;5.53;3.42;;;24.70;69.00;;;;;;5082178;28;27395;-69
2021/06/13 07:31:02;;;;;;;6.95;3.80;;;24.80;68.50;;;;;;5071655;28;27414;-69
2021/06/13 07:33:54;;;;;;;6.93;3.58;;;24.90;69.80;;;;;;5067664;28;27447;-69
2021/06/13 07:36:45;;;;;;;7.68;3.30;;;25.10;69.30;;;;;;5081763;28;27460;-68
2021/06/13 07:39:36;;;;;;;9.82;3.75;;;25.30;68.80;;;;;;5083519;28;27472;-69
2021/06/13 07:42:25;;;;;;;8.90;3.08;;;25.40;68.80;;;;;;5085332;28;27423;-70
2021/06/13 07:45:18;;;;;;;7.68;3.90;;;25.60;67.50;;;;;;5084946;28;27406;-70
2021/06/13 07:48:10;;;;;;;5.72;3.42;;;25.70;66.10;;;;;;5084738;28;27865;-70
2021/06/13 07:51:01;;;;;;;7.28;3.25;;;25.80;67.30;;;;;;5085085;28;27434;-69
2021/06/13 07:54:00;;;;;;;6.90;2.90;;;26.00;66.90;;;;;;5085253;28;27379;-75
2021/06/13 07:56:51;;;;;;;5.85;3.25;;;26.20;66.90;;;;;;5084748;28;27485;-71
2021/06/13 07:59:41;;;;;;;8.02;3.28;;;26.20;66.80;;;;;;5070421;28;27324;-71
2021/06/13 08:02:41;;;;;;;6.95;3.22;;;26.30;66.60;;;;;;5099337;27;27481;-70
2021/06/13 08:05:31;;;;;;;7.30;3.60;;;26.40;67.00;;;;;;5071397;28;27333;-70
2021/06/13 08:08:19;;;;;;;6.32;3.20;;;26.60;65.70;;;;;;5070925;28;27472;-75
2021/06/13 08:11:09;;;;;;;10.35;3.30;;;26.70;64.60;;;;;;5085569;28;27376;-70
2021/06/13 08:14:00;;;;;;;6.50;3.00;;;26.60;63.40;;;;;;5053242;28;27471;-69
2021/06/13 08:16:50;;;;;;;8.38;2.85;;;26.50;64.50;;;;;;5085563;28;27382;-69
2021/06/13 08:19:41;;;;;;;5.22;3.30;;;26.30;63.30;;;;;;5082786;28;27463;-69
2021/06/13 08:22:30;;;;;;;8.10;4.15;;;26.20;63.10;;;;;;5098580;28;27340;-69
2021/06/13 08:25:18;;;;;;;8.15;3.85;;;25.90;63.20;;;;;;5070092;28;27416;-71
2021/06/13 08:28:18;;;;;;;5.20;3.05;;;25.90;64.50;;;;;;5081305;28;27399;-70
2021/06/13 08:31:10;;;;;;;7.60;3.63;;;26.00;63.80;;;;;;5066769;28;27349;-69
2021/06/13 08:34:07;;;;;;;7.47;3.30;;;26.20;63.80;;;;;;5084799;28;27432;-70
2021/06/13 08:36:55;;;;;;;5.60;3.40;;;26.20;62.60;;;;;;5084109;28;27407;-70
2021/06/13 08:39:44;;;;;;;5.30;3.17;;;26.40;63.90;;;;;;5068817;28;27520;-70
2021/06/13 08:42:36;;;;;;;7.57;3.08;;;26.70;63.50;;;;;;5067112;28;27343;-70
2021/06/13 08:45:26;;;;;;;8.70;3.20;;;27.00;63.10;;;;;;5084740;28;27482;-71
2021/06/13 08:48:18;;;;;;;6.07;3.22;;;27.30;62.30;;;;;;5084074;28;27345;-71
2021/06/13 08:51:08;;;;;;;3.88;3.10;;;27.50;63.00;;;;;;5070237;28;27381;-71
2021/06/13 08:53:58;;;;;;;7.20;3.50;;;27.80;64.10;;;;;;5084149;28;27332;-72
2021/06/13 08:56:52;;;;;;;6.43;3.08;;;28.10;64.70;;;;;;5066714;28;27475;-70
2021/06/13 08:59:42;;;;;;;3.72;2.45;;;28.30;61.60;;;;;;5083629;28;27530;-69
2021/06/13 09:02:32;;;;;;;4.82;3.15;;;28.40;60.30;;;;;;5084017;28;27408;-68
2021/06/13 09:05:25;;;;;;;6.75;3.20;;;28.50;61.00;;;;;;5080462;28;27463;-68
2021/06/13 09:08:16;;;;;;;6.32;3.45;;;28.70;63.30;;;;;;5080333;28;27489;-68
2021/06/13 09:11:09;;;;;;;7.07;3.03;;;28.70;59.10;;;;;;5069587;28;27432;-68
2021/06/13 09:14:19;;;;;;;6.03;3.22;;;28.90;59.70;;;;;;5054641;28;27074;-69
2021/06/13 09:17:26;;;;;;;3.83;2.47;;;29.20;59.60;;;;;;5069617;28;27490;-69
2021/06/13 09:20:25;;;;;;;4.93;2.40;;;29.10;56.70;;;;;;5066436;28;27966;-68
2021/06/13 09:23:18;;;;;;;4.50;2.00;;;29.20;62.70;;;;;;5083465;28;27368;-69
2021/06/13 09:26:10;;;;;;;5.18;2.28;;;29.30;60.00;;;;;;5097612;27;27443;-69
2021/06/13 09:29:01;;;;;;;4.07;2.20;;;29.50;60.00;;;;;;5097773;27;27477;-69
2021/06/13 09:32:04;;;;;;;6.55;2.40;;;29.60;57.30;;;;;;5056371;28;27361;-69
2021/06/13 09:35:28;;;;;;;2.28;2.00;;;29.80;56.90;;;;;;5069626;28;27395;-69
2021/06/13 09:38:27;;;;;;;5.53;1.70;;;30.00;57.60;;;;;;5083649;28;27316;-68
2021/06/13 09:41:23;;;;;;;4.82;1.83;;;30.20;58.60;;;;;;5069129;28;27461;-69
2021/06/13 09:44:29;;;;;;;6.80;2.30;;;30.40;61.60;;;;;;5083431;28;27399;-69
2021/06/13 09:47:17;;;;;;;5.60;2.03;;;30.60;57.90;;;;;;5083400;28;27474;-65
2021/06/13 09:50:02;;;;;;;5.90;2.55;;;30.60;40.50;;;;;;5083170;28;27419;-67
2021/06/13 09:52:47;;;;;;;6.95;2.08;;;30.50;39.20;;;;;;5083038;28;27432;-67
2021/06/13 09:55:31;;;;;;;11.00;2.08;;;30.40;37.70;;;;;;5083662;28;27469;-67
2021/06/13 09:58:16;;;;;;;7.03;2.05;;;30.50;38.80;;;;;;5097344;27;27496;-69
2021/06/13 10:01:08;;;;;;;8.90;1.98;;;30.50;38.60;;;;;;5083848;28;27415;-69
2021/06/13 10:03:53;;;;;;;5.60;1.98;;;30.60;42.20;;;;;;5083651;28;27319;-69
2021/06/13 10:06:38;;;;;;;5.30;1.67;;;30.70;44.60;;;;;;5082867;28;27397;-72
2021/06/13 10:09:33;;;;;;;5.28;1.95;;;30.90;46.70;;;;;;5081045;28;27403;-73
2021/06/13 10:12:20;;;;;;;5.40;1.90;;;31.10;47.30;;;;;;5084002;28;27453;-72
2021/06/13 10:15:14;;;;;;;6.68;1.65;;;31.20;47.80;;;;;;5087469;28;27498;-73
2021/06/13 10:18:11;;;;;;;11.13;2.40;;;31.30;48.20;;;;;;5086979;28;27365;-71
2021/06/13 10:21:12;;;;;;;8.20;1.98;;;31.30;43.20;;;;;;5086743;28;27482;-72
2021/06/13 10:23:57;;;;;;;5.60;2.08;;;31.30;41.50;;;;;;5068741;28;27344;-73
2021/06/13 10:26:44;;;;;;;4.25;1.50;;;31.40;44.90;;;;;;5086951;28;27308;-72
2021/06/13 10:29:33;;;;;;;4.38;2.25;;;31.50;47.60;;;;;;5086846;28;27381;-73
2021/06/13 10:32:21;;;;;;;3.75;1.60;;;31.70;47.70;;;;;;5087071;28;27404;-73
2021/06/13 10:35:06;;;;;;;5.63;1.70;;;31.70;47.90;;;;;;5085826;28;27383;-70
2021/06/13 10:37:51;;;;;;;3.35;1.80;;;31.80;47.30;;;;;;5086829;28;26945;-71
2021/06/13 10:40:37;;;;;;;4.47;1.60;;;31.70;48.00;;;;;;5085291;28;27340;-71
2021/06/13 10:43:26;;;;;;;3.47;1.45;;;31.80;50.80;;;;;;5088332;28;27369;-72
2021/06/13 10:46:18;;;;;;;3.47;1.58;;;31.80;52.70;;;;;;5086608;28;27509;-73
2021/06/13 10:49:03;;;;;;;6.82;2.08;;;31.90;52.60;;;;;;5086625;28;27398;-72
2021/06/13 10:51:48;;;;;;;5.20;1.70;;;32.00;51.60;;;;;;5054318;28;27392;-72
2021/06/13 10:54:51;;;;;;;3.90;1.80;;;32.20;51.60;;;;;;5085930;28;27372;-71
2021/06/13 10:57:45;;;;;;;4.95;1.67;;;32.30;50.40;;;;;;5086524;28;27352;-71
2021/06/13 11:00:33;;;;;;;2.15;1.60;;;32.30;49.70;;;;;;5085415;28;27356;-71
2021/06/13 11:03:20;;;;;;;3.15;1.23;;;32.20;49.00;;;;;;5086450;28;27345;-71
2021/06/13 11:06:05;;;;;;;2.88;1.70;;;32.20;48.70;;;;;;5086542;28;27410;-71
2021/06/13 11:09:03;;;;;;;2.97;1.60;;;32.20;50.50;;;;;;5099978;27;27447;-71
2021/06/13 11:11:55;;;;;;;3.85;2.13;;;32.20;52.10;;;;;;5082260;28;27425;-71
2021/06/13 11:14:39;;;;;;;3.08;1.60;;;32.20;50.70;;;;;;5085766;28;27941;-71
2021/06/13 11:17:50;;;;;;;2.25;1.20;;;32.20;52.10;;;;;;5100068;27;27488;-71
2021/06/13 11:20:50;;;;;;;3.55;1.90;;;32.10;48.60;;;;;;5085863;28;27378;-72
2021/06/13 11:23:38;;;;;;;3.17;1.50;;;32.00;51.50;;;;;;5071805;28;27509;-71
2021/06/13 11:26:28;;;;;;;5.90;1.73;;;32.10;52.90;;;;;;5085186;28;27501;-71
2021/06/13 11:29:13;;;;;;;2.65;1.50;;;32.10;53.00;;;;;;5085463;28;27395;-72
2021/06/13 11:31:58;;;;;;;3.63;1.60;;;32.20;51.40;;;;;;5085232;28;27400;-71
2021/06/13 11:34:49;;;;;;;6.63;1.65;;;32.30;51.60;;;;;;5081890;28;27327;-72
2021/06/13 11:37:33;;;;;;;2.83;1.38;;;32.20;51.10;;;;;;5071072;28;27441;-71
2021/06/13 11:40:30;;;;;;;4.20;1.20;;;32.20;51.20;;;;;;5085396;28;27477;-70
2021/06/13 11:43:19;;;;;;;3.63;1.70;;;32.10;52.30;;;;;;5085064;28;27410;-70
2021/06/13 11:46:10;;;;;;;4.75;1.25;;;32.10;50.40;;;;;;5085845;28;27394;-71
2021/06/13 11:48:57;;;;;;;2.90;1.73;;;32.00;48.50;;;;;;5068200;28;27402;-71
2021/06/13 11:52:00;;;;;;;3.38;1.45;;;32.00;53.40;;;;;;5084976;28;27369;-71
2021/06/13 11:55:19;;;;;;;2.13;1.17;;;32.00;56.00;;;;;;5084863;28;27391;-71
2021/06/13 11:58:11;;;;;;;3.03;1.20;;;32.10;53.40;;;;;;5083720;28;27461;-73
2021/06/13 12:00:56;;;;;;;1.70;1.05;;;32.10;53.30;;;;;;5069624;28;27987;-71
2021/06/13 12:03:43;;;;;;;5.03;1.60;;;32.20;53.20;;;;;;5083780;28;27399;-71
2021/06/13 12:06:27;;;;;;;4.05;1.95;;;32.20;49.90;;;;;;5069536;28;27427;-70
2021/06/13 12:09:17;;;;;;;3.47;1.40;;;32.10;51.40;;;;;;5068384;28;27455;-70
2021/06/13 12:12:05;;;;;;;3.65;1.70;;;32.10;52.70;;;;;;5055306;28;27487;-70
2021/06/13 12:14:56;;;;;;;2.50;1.35;;;32.00;53.20;;;;;;5083482;28;27376;-70
2021/06/13 12:17:41;;;;;;;2.75;1.30;;;31.90;54.40;;;;;;5066054;28;27428;-71
2021/06/13 12:20:27;;;;;;;1.25;1.00;;;31.90;55.30;;;;;;5054908;28;27506;-70
2021/06/13 12:23:17;;;;;;;2.15;1.17;;;31.90;58.20;;;;;;5069031;28;27707;-70
2021/06/13 12:29:05;;;;;;;2.60;1.08;;;31.90;53.50;;;;;;5068585;28;27361;-70
2021/06/13 12:31:50;;;;;;;4.40;0.95;;;31.90;54.60;;;;;;5083352;28;27464;-71
2021/06/13 12:34:38;;;;;;;2.03;1.02;;;31.80;56.00;;;;;;5083641;28;27365;-71
2021/06/13 12:37:24;;;;;;;1.70;0.98;;;31.80;54.20;;;;;;5084326;28;27340;-72
2021/06/13 12:40:12;;;;;;;2.40;1.30;;;31.70;49.90;;;;;;5066692;28;27394;-71
2021/06/13 12:42:57;;;;;;;1.20;0.95;;;31.60;53.20;;;;;;5084325;28;27404;-71
2021/06/13 12:45:43;;;;;;;3.20;1.27;;;31.50;55.30;;;;;;5084201;28;27869;-71
2021/06/13 12:48:28;;;;;;;3.10;1.30;;;31.50;55.20;;;;;;5084224;28;27540;-71
2021/06/13 12:51:23;;;;;;;2.85;1.05;;;31.50;57.20;;;;;;5084862;28;27407;-70
2021/06/13 12:54:15;;;;;;;1.55;1.00;;;31.50;58.30;;;;;;5084592;28;27436;-71
2021/06/13 12:57:02;;;;;;;1.77;0.90;;;31.50;53.30;;;;;;5084119;28;27474;-71
2021/06/13 12:59:47;;;;;;;2.25;1.25;;;31.50;54.70;;;;;;5084648;28;27534;-71
2021/06/13 13:02:32;;;;;;;3.72;1.40;;;31.50;57.00;;;;;;5080670;28;27399;-71
2021/06/13 13:05:17;;;;;;;2.13;0.98;;;31.50;54.50;;;;;;5080675;28;27532;-70
2021/06/13 13:08:14;;;;;;;1.38;0.98;;;31.50;53.30;;;;;;5083786;28;27402;-70
2021/06/13 13:11:03;;;;;;;4.85;1.08;;;31.50;55.20;;;;;;5080546;28;27442;-71
2021/06/13 13:13:52;;;;;;;1.58;0.90;;;31.50;54.80;;;;;;5098500;27;27332;-72
2021/06/13 13:16:39;;;;;;;1.70;0.93;;;31.50;56.30;;;;;;5084314;28;27411;-70
2021/06/13 13:19:29;;;;;;;1.92;0.80;;;31.50;51.70;;;;;;5097796;27;27853;-70
2021/06/13 13:22:17;;;;;;;2.78;0.90;;;31.50;47.90;;;;;;5083530;28;27368;-70
2021/06/13 13:25:15;;;;;;;1.08;0.95;;;31.40;50.90;;;;;;5080218;28;27408;-70
2021/06/13 13:28:37;;;;;;;3.53;1.15;;;31.40;52.00;;;;;;5084134;28;27317;-70
2021/06/13 13:31:26;;;;;;;1.52;0.88;;;31.30;55.40;;;;;;5084419;28;27485;-70
2021/06/13 13:34:11;;;;;;;4.15;0.98;;;31.40;53.90;;;;;;5083464;28;27367;-70
2021/06/13 13:37:14;;;;;;;1.10;0.75;;;31.40;52.20;;;;;;5083398;28;27340;-70
2021/06/13 13:40:14;;;;;;;2.53;0.90;;;31.40;53.60;;;;;;5079918;28;27368;-72
2021/06/13 13:42:59;;;;;;;2.42;0.95;;;31.30;53.90;;;;;;5084230;28;27900;-70
2021/06/13 13:45:45;;;;;;;1.05;0.77;;;31.30;51.10;;;;;;5083926;28;27406;-70
2021/06/13 13:48:30;;;;;;;1.83;0.70;;;31.40;51.60;;;;;;5071289;28;27569;-70
2021/06/13 13:51:14;;;;;;;1.27;0.93;;;31.30;49.80;;;;;;5087868;28;27403;-70
2021/06/13 13:53:59;;;;;;;3.08;1.10;;;31.30;55.90;;;;;;5087723;28;27375;-73
2021/06/13 13:57:18;;;;;;;1.23;0.95;;;31.40;53.00;;;;;;5083627;28;27388;-72
2021/06/13 14:00:03;;;;;;;5.20;0.90;;;31.40;51.00;;;;;;5086486;28;27617;-73
2021/06/13 14:02:52;;;;;;;1.50;0.75;;;31.50;51.00;;;;;;5087411;28;27328;-73
2021/06/13 14:05:37;;;;;;;3.05;1.13;;;31.50;53.20;;;;;;5086439;28;27331;-73
2021/06/13 14:08:22;;;;;;;2.55;1.10;;;31.50;51.00;;;;;;5083639;27;27413;-73
2021/06/13 14:11:07;;;;;;;2.10;0.82;;;31.50;50.60;;;;;;5101178;27;27390;-73
2021/06/13 14:13:54;;;;;;;1.00;0.80;;;31.50;51.00;;;;;;5087287;28;27320;-73
2021/06/13 14:16:41;;;;;;;1.42;0.90;;;31.50;50.40;;;;;;5086313;28;27332;-74
2021/06/13 14:19:33;;;;;;;1.95;0.98;;;31.50;49.50;;;;;;5072181;28;27603;-73
2021/06/13 14:22:20;;;;;;;1.17;0.80;;;31.50;47.30;;;;;;5086388;28;27447;-75
2021/06/13 14:25:05;;;;;;;1.55;0.88;;;31.40;50.50;;;;;;5087002;28;27497;-73
2021/06/13 14:27:51;;;;;;;4.68;1.05;;;31.30;48.50;;;;;;5087250;28;27423;-75
2021/06/13 14:30:36;;;;;;;1.85;0.93;;;31.30;48.90;;;;;;5087178;28;27470;-72
2021/06/13 14:33:21;;;;;;;1.08;0.70;;;31.20;49.90;;;;;;5082956;28;27423;-72
2021/06/13 14:36:07;;;;;;;1.27;0.70;;;31.20;50.20;;;;;;5086124;28;27431;-73
2021/06/13 14:38:53;;;;;;;1.63;0.90;;;31.20;47.40;;;;;;5054575;28;27478;-73
2021/06/13 14:41:38;;;;;;;0.70;0.70;;;31.30;48.20;;;;;;5085817;28;27519;-73
2021/06/13 14:44:22;;;;;;;2.00;1.00;;;31.20;48.40;;;;;;5085642;28;27577;-73
2021/06/13 14:47:07;;;;;;;1.20;0.90;;;31.20;47.90;;;;;;5086170;28;27412;-72
2021/06/13 14:49:52;;;;;;;1.25;0.80;;;31.30;47.70;;;;;;5086603;28;27880;-72
2021/06/13 14:52:41;;;;;;;4.22;1.10;;;31.20;46.70;;;;;;5086820;28;27500;-74
2021/06/13 14:55:27;;;;;;;3.30;1.02;;;31.20;45.90;;;;;;5086741;28;27317;-72